sensor_id;sensor_type;location;lat;lon;timestamp;P1;durP1;ratioP1;P2;durP2;ratioP2
58089;SDS011;45149;50.976;6.120;2022-09-01T00:02:03;4.05;;;3.05;;
58089;SDS011;45149;50.976;6.120;2022-09-01T00:04:32;6.72;;;3.10;;
58089;SDS011;45149;50.976;6.120;2022-09-01T00:06:59;7.47;;;2.97;;
58089;SDS011;45149;50.976;6.120;2022-09-01T00:09:25;5.80;;;2.90;;
58089;SDS011;45149;50.976;6.120;2022-09-01T00:11:51;7.82;;;3.42;;
58089;SDS011;45149;50.976;6.120;2022-09-01T00:14:20;6.53;;;3.35;;
58089;SDS011;45149;50.976;6.120;2022-09-01T00:16:47;5.63;;;3.42;;
58089;SDS011;45149;50.976;6.120;2022-09-01T00:19:12;6.38;;;3.33;;
58089;SDS011;45149;50.976;6.120;2022-09-01T00:21:39;5.63;;;3.42;;
58089;SDS011;45149;50.976;6.120;2022-09-01T00:24:05;6.10;;;3.20;;
58089;SDS011;45149;50.976;6.120;2022-09-01T00:26:31;4.93;;;3.45;;
58089;SDS011;45149;50.976;6.120;2022-09-01T00:28:57;5.35;;;3.58;;
58089;SDS011;45149;50.976;6.120;2022-09-01T00:31:23;5.07;;;3.58;;
58089;SDS011;45149;50.976;6.120;2022-09-01T00:33:48;6.20;;;4.00;;
58089;SDS011;45149;50.976;6.120;2022-09-01T00:36:15;7.32;;;3.83;;
58089;SDS011;45149;50.976;6.120;2022-09-01T00:38:42;8.02;;;3.95;;
58089;SDS011;45149;50.976;6.120;2022-09-01T00:41:07;7.22;;;4.00;;
58089;SDS011;45149;50.976;6.120;2022-09-01T00:43:42;7.13;;;4.03;;
58089;SDS011;45149;50.976;6.120;2022-09-01T00:46:11;8.18;;;4.50;;
58089;SDS011;45149;50.976;6.120;2022-09-01T00:48:50;7.03;;;4.00;;
58089;SDS011;45149;50.976;6.120;2022-09-01T00:51:19;6.32;;;4.47;;
58089;SDS011;45149;50.976;6.120;2022-09-01T00:53:45;7.13;;;4.53;;
58089;SDS011;45149;50.976;6.120;2022-09-01T00:56:11;5.03;;;4.28;;
58089;SDS011;45149;50.976;6.120;2022-09-01T00:58:38;8.95;;;4.82;;
58089;SDS011;45149;50.976;6.120;2022-09-01T01:01:04;7.72;;;4.75;;
58089;SDS011;45149;50.976;6.120;2022-09-01T01:03:31;8.27;;;4.63;;
58089;SDS011;45149;50.976;6.120;2022-09-01T01:05:57;7.15;;;4.38;;
58089;SDS011;45149;50.976;6.120;2022-09-01T01:08:28;8.60;;;4.75;;
58089;SDS011;45149;50.976;6.120;2022-09-01T01:11:02;7.25;;;4.35;;
58089;SDS011;45149;50.976;6.120;2022-09-01T01:13:34;6.28;;;4.28;;
58089;SDS011;45149;50.976;6.120;2022-09-01T01:16:12;9.85;;;4.43;;
58089;SDS011;45149;50.976;6.120;2022-09-01T01:18:39;7.90;;;4.18;;
58089;SDS011;45149;50.976;6.120;2022-09-01T01:21:06;6.20;;;4.30;;
58089;SDS011;45149;50.976;6.120;2022-09-01T01:23:55;9.07;;;4.75;;
58089;SDS011;45149;50.976;6.120;2022-09-01T01:26:25;10.82;;;4.88;;
58089;SDS011;45149;50.976;6.120;2022-09-01T01:28:51;8.73;;;4.65;;
58089;SDS011;45149;50.976;6.120;2022-09-01T01:31:17;7.43;;;4.15;;
58089;SDS011;45149;50.976;6.120;2022-09-01T01:33:47;8.43;;;4.43;;
58089;SDS011;45149;50.976;6.120;2022-09-01T01:36:17;8.77;;;4.90;;
58089;SDS011;45149;50.976;6.120;2022-09-01T01:38:44;8.70;;;4.60;;
58089;SDS011;45149;50.976;6.120;2022-09-01T01:41:11;7.40;;;4.50;;
58089;SDS011;45149;50.976;6.120;2022-09-01T01:43:38;6.20;;;4.78;;
58089;SDS011;45149;50.976;6.120;2022-09-01T01:46:04;8.32;;;5.68;;
58089;SDS011;45149;50.976;6.120;2022-09-01T01:48:33;6.88;;;5.47;;
58089;SDS011;45149;50.976;6.120;2022-09-01T01:51:03;7.88;;;5.60;;
58089;SDS011;45149;50.976;6.120;2022-09-01T01:53:30;9.13;;;5.18;;
58089;SDS011;45149;50.976;6.120;2022-09-01T01:55:56;7.80;;;5.40;;
58089;SDS011;45149;50.976;6.120;2022-09-01T01:58:24;8.50;;;5.70;;
58089;SDS011;45149;50.976;6.120;2022-09-01T02:00:50;8.98;;;5.45;;
58089;SDS011;45149;50.976;6.120;2022-09-01T02:03:19;8.77;;;5.63;;
58089;SDS011;45149;50.976;6.120;2022-09-01T02:05:47;6.18;;;5.40;;
58089;SDS011;45149;50.976;6.120;2022-09-01T02:08:14;7.25;;;5.75;;
58089;SDS011;45149;50.976;6.120;2022-09-01T02:10:47;8.70;;;5.57;;
58089;SDS011;45149;50.976;6.120;2022-09-01T02:13:16;11.23;;;5.55;;
58089;SDS011;45149;50.976;6.120;2022-09-01T02:15:47;9.10;;;5.55;;
58089;SDS011;45149;50.976;6.120;2022-09-01T02:20:48;7.83;;;5.70;;
58089;SDS011;45149;50.976;6.120;2022-09-01T02:23:16;9.60;;;5.68;;
58089;SDS011;45149;50.976;6.120;2022-09-01T02:25:47;8.90;;;5.57;;
58089;SDS011;45149;50.976;6.120;2022-09-01T02:28:15;10.25;;;5.78;;
58089;SDS011;45149;50.976;6.120;2022-09-01T02:30:46;10.07;;;6.45;;
58089;SDS011;45149;50.976;6.120;2022-09-01T02:33:15;9.40;;;5.55;;
58089;SDS011;45149;50.976;6.120;2022-09-01T02:35:47;9.80;;;5.65;;
58089;SDS011;45149;50.976;6.120;2022-09-01T02:38:14;9.48;;;5.60;;
58089;SDS011;45149;50.976;6.120;2022-09-01T02:40:41;9.90;;;6.40;;
58089;SDS011;45149;50.976;6.120;2022-09-01T02:43:11;7.68;;;6.10;;
58089;SDS011;45149;50.976;6.120;2022-09-01T02:45:38;9.13;;;5.82;;
58089;SDS011;45149;50.976;6.120;2022-09-01T02:48:06;8.73;;;5.97;;
58089;SDS011;45149;50.976;6.120;2022-09-01T02:50:33;7.50;;;5.90;;
58089;SDS011;45149;50.976;6.120;2022-09-01T02:53:02;7.10;;;5.90;;
58089;SDS011;45149;50.976;6.120;2022-09-01T02:55:33;8.02;;;5.95;;
58089;SDS011;45149;50.976;6.120;2022-09-01T02:58:03;8.57;;;5.70;;
58089;SDS011;45149;50.976;6.120;2022-09-01T03:00:29;8.82;;;6.13;;
58089;SDS011;45149;50.976;6.120;2022-09-01T03:03:01;8.85;;;5.97;;
58089;SDS011;45149;50.976;6.120;2022-09-01T03:05:29;8.85;;;6.30;;
58089;SDS011;45149;50.976;6.120;2022-09-01T03:07:59;7.50;;;6.05;;
58089;SDS011;45149;50.976;6.120;2022-09-01T03:10:28;7.38;;;5.75;;
58089;SDS011;45149;50.976;6.120;2022-09-01T03:13:04;7.57;;;5.82;;
58089;SDS011;45149;50.976;6.120;2022-09-01T03:15:32;9.48;;;6.85;;
58089;SDS011;45149;50.976;6.120;2022-09-01T03:17:59;7.32;;;6.47;;
58089;SDS011;45149;50.976;6.120;2022-09-01T03:20:24;7.18;;;5.95;;
58089;SDS011;45149;50.976;6.120;2022-09-01T03:22:50;9.10;;;6.35;;
58089;SDS011;45149;50.976;6.120;2022-09-01T03:25:17;10.43;;;6.55;;
58089;SDS011;45149;50.976;6.120;2022-09-01T03:27:43;8.40;;;6.40;;
58089;SDS011;45149;50.976;6.120;2022-09-01T03:30:09;8.57;;;6.75;;
58089;SDS011;45149;50.976;6.120;2022-09-01T03:32:35;7.80;;;6.53;;
58089;SDS011;45149;50.976;6.120;2022-09-01T03:35:00;7.72;;;6.80;;
58089;SDS011;45149;50.976;6.120;2022-09-01T03:37:26;8.13;;;6.72;;
58089;SDS011;45149;50.976;6.120;2022-09-01T03:39:52;9.27;;;6.63;;
58089;SDS011;45149;50.976;6.120;2022-09-01T03:42:18;7.90;;;6.50;;
58089;SDS011;45149;50.976;6.120;2022-09-01T03:44:49;11.63;;;6.80;;
58089;SDS011;45149;50.976;6.120;2022-09-01T03:47:16;8.02;;;6.72;;
58089;SDS011;45149;50.976;6.120;2022-09-01T03:49:42;11.13;;;7.25;;
58089;SDS011;45149;50.976;6.120;2022-09-01T03:52:07;9.65;;;7.00;;
58089;SDS011;45149;50.976;6.120;2022-09-01T03:54:34;9.40;;;7.15;;
58089;SDS011;45149;50.976;6.120;2022-09-01T03:57:00;8.68;;;6.82;;
58089;SDS011;45149;50.976;6.120;2022-09-01T03:59:25;7.57;;;6.60;;
58089;SDS011;45149;50.976;6.120;2022-09-01T04:01:52;8.57;;;7.03;;
58089;SDS011;45149;50.976;6.120;2022-09-01T04:04:18;7.75;;;7.05;;
58089;SDS011;45149;50.976;6.120;2022-09-01T04:06:44;9.30;;;7.20;;
58089;SDS011;45149;50.976;6.120;2022-09-01T04:09:10;8.10;;;7.13;;
58089;SDS011;45149;50.976;6.120;2022-09-01T04:11:36;8.18;;;6.97;;
58089;SDS011;45149;50.976;6.120;2022-09-01T04:14:03;8.65;;;7.28;;
58089;SDS011;45149;50.976;6.120;2022-09-01T04:16:30;8.05;;;7.40;;
58089;SDS011;45149;50.976;6.120;2022-09-01T04:19:17;8.48;;;7.50;;
58089;SDS011;45149;50.976;6.120;2022-09-01T04:21:45;9.73;;;8.00;;
58089;SDS011;45149;50.976;6.120;2022-09-01T04:24:11;8.40;;;7.60;;
58089;SDS011;45149;50.976;6.120;2022-09-01T04:26:39;8.63;;;7.78;;
58089;SDS011;45149;50.976;6.120;2022-09-01T04:29:05;8.82;;;7.78;;
58089;SDS011;45149;50.976;6.120;2022-09-01T04:31:33;9.60;;;7.93;;
58089;SDS011;45149;50.976;6.120;2022-09-01T04:34:00;9.98;;;8.05;;
58089;SDS011;45149;50.976;6.120;2022-09-01T04:36:27;8.85;;;7.95;;
58089;SDS011;45149;50.976;6.120;2022-09-01T04:38:57;9.70;;;8.70;;
58089;SDS011;45149;50.976;6.120;2022-09-01T04:41:25;8.20;;;7.50;;
58089;SDS011;45149;50.976;6.120;2022-09-01T04:43:56;8.60;;;7.72;;
58089;SDS011;45149;50.976;6.120;2022-09-01T04:46:23;8.40;;;7.50;;
58089;SDS011;45149;50.976;6.120;2022-09-01T04:48:52;8.55;;;7.70;;
58089;SDS011;45149;50.976;6.120;2022-09-01T04:51:18;9.32;;;8.07;;
58089;SDS011;45149;50.976;6.120;2022-09-01T04:53:44;8.57;;;7.43;;
58089;SDS011;45149;50.976;6.120;2022-09-01T04:56:14;9.18;;;7.57;;
58089;SDS011;45149;50.976;6.120;2022-09-01T04:58:44;14.95;;;8.20;;
58089;SDS011;45149;50.976;6.120;2022-09-01T05:01:14;8.57;;;7.57;;
58089;SDS011;45149;50.976;6.120;2022-09-01T05:03:43;9.60;;;8.70;;
58089;SDS011;45149;50.976;6.120;2022-09-01T05:06:13;9.98;;;8.93;;
58089;SDS011;45149;50.976;6.120;2022-09-01T05:08:42;9.05;;;8.20;;
58089;SDS011;45149;50.976;6.120;2022-09-01T05:11:12;9.40;;;8.43;;
58089;SDS011;45149;50.976;6.120;2022-09-01T05:13:41;9.68;;;8.10;;
58089;SDS011;45149;50.976;6.120;2022-09-01T05:16:10;9.13;;;8.32;;
58089;SDS011;45149;50.976;6.120;2022-09-01T05:18:43;9.70;;;7.72;;
58089;SDS011;45149;50.976;6.120;2022-09-01T05:21:12;8.88;;;7.95;;
58089;SDS011;45149;50.976;6.120;2022-09-01T05:23:41;8.32;;;7.47;;
58089;SDS011;45149;50.976;6.120;2022-09-01T05:26:11;8.52;;;7.68;;
58089;SDS011;45149;50.976;6.120;2022-09-01T05:28:41;8.93;;;8.07;;
58089;SDS011;45149;50.976;6.120;2022-09-01T05:31:11;8.38;;;7.57;;
58089;SDS011;45149;50.976;6.120;2022-09-01T05:33:37;8.40;;;7.53;;
58089;SDS011;45149;50.976;6.120;2022-09-01T05:36:09;8.68;;;7.63;;
58089;SDS011;45149;50.976;6.120;2022-09-01T05:38:35;9.23;;;7.90;;
58089;SDS011;45149;50.976;6.120;2022-09-01T05:41:02;8.88;;;7.97;;
58089;SDS011;45149;50.976;6.120;2022-09-01T05:43:33;8.77;;;8.02;;
58089;SDS011;45149;50.976;6.120;2022-09-01T05:46:00;8.70;;;7.53;;
58089;SDS011;45149;50.976;6.120;2022-09-01T05:48:28;8.30;;;7.60;;
58089;SDS011;45149;50.976;6.120;2022-09-01T05:50:55;10.65;;;8.15;;
58089;SDS011;45149;50.976;6.120;2022-09-01T05:53:25;9.27;;;8.25;;
58089;SDS011;45149;50.976;6.120;2022-09-01T05:55:52;8.45;;;7.60;;
58089;SDS011;45149;50.976;6.120;2022-09-01T05:58:21;8.45;;;7.68;;
58089;SDS011;45149;50.976;6.120;2022-09-01T06:00:51;9.07;;;8.20;;
58089;SDS011;45149;50.976;6.120;2022-09-01T06:03:18;8.70;;;7.90;;
58089;SDS011;45149;50.976;6.120;2022-09-01T06:05:44;9.55;;;7.60;;
58089;SDS011;45149;50.976;6.120;2022-09-01T06:08:17;7.97;;;7.22;;
58089;SDS011;45149;50.976;6.120;2022-09-01T06:10:43;8.45;;;7.53;;
58089;SDS011;45149;50.976;6.120;2022-09-01T06:13:10;8.07;;;7.32;;
58089;SDS011;45149;50.976;6.120;2022-09-01T06:15:39;8.82;;;7.97;;
58089;SDS011;45149;50.976;6.120;2022-09-01T06:18:05;8.93;;;7.70;;
58089;SDS011;45149;50.976;6.120;2022-09-01T06:20:33;7.97;;;7.28;;
58089;SDS011;45149;50.976;6.120;2022-09-01T06:23:02;8.13;;;7.43;;
58089;SDS011;45149;50.976;6.120;2022-09-01T06:25:27;10.02;;;7.57;;
58089;SDS011;45149;50.976;6.120;2022-09-01T06:27:54;9.32;;;6.90;;
58089;SDS011;45149;50.976;6.120;2022-09-01T06:30:20;8.07;;;7.35;;
58089;SDS011;45149;50.976;6.120;2022-09-01T06:32:46;7.95;;;7.15;;
58089;SDS011;45149;50.976;6.120;2022-09-01T06:35:14;8.00;;;6.82;;
58089;SDS011;45149;50.976;6.120;2022-09-01T06:37:40;7.95;;;7.15;;
58089;SDS011;45149;50.976;6.120;2022-09-01T06:40:08;8.40;;;7.05;;
58089;SDS011;45149;50.976;6.120;2022-09-01T06:42:41;8.38;;;7.28;;
58089;SDS011;45149;50.976;6.120;2022-09-01T06:45:08;9.20;;;6.90;;
58089;SDS011;45149;50.976;6.120;2022-09-01T06:47:35;7.90;;;6.88;;
58089;SDS011;45149;50.976;6.120;2022-09-01T06:50:01;7.47;;;6.35;;
58089;SDS011;45149;50.976;6.120;2022-09-01T06:52:27;8.88;;;6.55;;
58089;SDS011;45149;50.976;6.120;2022-09-01T06:54:53;7.65;;;6.95;;
58089;SDS011;45149;50.976;6.120;2022-09-01T06:57:18;7.55;;;6.68;;
58089;SDS011;45149;50.976;6.120;2022-09-01T06:59:46;7.03;;;6.32;;
58089;SDS011;45149;50.976;6.120;2022-09-01T07:02:11;7.35;;;6.57;;
58089;SDS011;45149;50.976;6.120;2022-09-01T07:04:40;9.98;;;6.57;;
58089;SDS011;45149;50.976;6.120;2022-09-01T07:07:07;9.15;;;6.68;;
58089;SDS011;45149;50.976;6.120;2022-09-01T07:09:37;10.93;;;6.15;;
58089;SDS011;45149;50.976;6.120;2022-09-01T07:12:03;7.25;;;6.18;;
58089;SDS011;45149;50.976;6.120;2022-09-01T07:14:29;6.60;;;5.70;;
58089;SDS011;45149;50.976;6.120;2022-09-01T07:16:55;7.07;;;6.00;;
58089;SDS011;45149;50.976;6.120;2022-09-01T07:19:22;6.68;;;5.97;;
58089;SDS011;45149;50.976;6.120;2022-09-01T07:21:50;6.65;;;5.15;;
58089;SDS011;45149;50.976;6.120;2022-09-01T07:24:16;5.70;;;5.20;;
58089;SDS011;45149;50.976;6.120;2022-09-01T07:26:45;6.22;;;5.00;;
58089;SDS011;45149;50.976;6.120;2022-09-01T07:29:14;7.95;;;5.10;;
58089;SDS011;45149;50.976;6.120;2022-09-01T07:31:42;7.35;;;5.45;;
58089;SDS011;45149;50.976;6.120;2022-09-01T07:34:09;5.28;;;4.78;;
58089;SDS011;45149;50.976;6.120;2022-09-01T07:36:37;6.28;;;4.35;;
58089;SDS011;45149;50.976;6.120;2022-09-01T07:39:04;4.80;;;4.20;;
58089;SDS011;45149;50.976;6.120;2022-09-01T07:41:30;7.63;;;3.78;;
58089;SDS011;45149;50.976;6.120;2022-09-01T07:43:56;5.43;;;3.85;;
58089;SDS011;45149;50.976;6.120;2022-09-01T07:46:25;6.90;;;4.07;;
58089;SDS011;45149;50.976;6.120;2022-09-01T07:48:54;7.88;;;4.30;;
58089;SDS011;45149;50.976;6.120;2022-09-01T07:51:20;5.05;;;3.55;;
58089;SDS011;45149;50.976;6.120;2022-09-01T07:53:47;8.07;;;3.97;;
58089;SDS011;45149;50.976;6.120;2022-09-01T07:56:16;6.93;;;3.65;;
58089;SDS011;45149;50.976;6.120;2022-09-01T07:58:44;5.13;;;3.50;;
58089;SDS011;45149;50.976;6.120;2022-09-01T08:01:11;5.65;;;3.47;;
58089;SDS011;45149;50.976;6.120;2022-09-01T08:03:42;5.65;;;3.17;;
58089;SDS011;45149;50.976;6.120;2022-09-01T08:06:10;4.90;;;3.08;;
58089;SDS011;45149;50.976;6.120;2022-09-01T08:08:38;6.30;;;3.60;;
58089;SDS011;45149;50.976;6.120;2022-09-01T08:11:04;4.75;;;2.90;;
58089;SDS011;45149;50.976;6.120;2022-09-01T08:13:34;4.88;;;2.85;;
58089;SDS011;45149;50.976;6.120;2022-09-01T08:16:05;4.65;;;2.95;;
58089;SDS011;45149;50.976;6.120;2022-09-01T08:18:31;3.70;;;2.58;;
58089;SDS011;45149;50.976;6.120;2022-09-01T08:20:57;5.00;;;2.40;;
58089;SDS011;45149;50.976;6.120;2022-09-01T08:23:23;5.47;;;3.08;;
58089;SDS011;45149;50.976;6.120;2022-09-01T08:25:51;6.50;;;2.80;;
58089;SDS011;45149;50.976;6.120;2022-09-01T08:28:18;4.78;;;2.50;;
58089;SDS011;45149;50.976;6.120;2022-09-01T08:30:44;6.35;;;2.40;;
58089;SDS011;45149;50.976;6.120;2022-09-01T08:33:12;3.90;;;2.00;;
58089;SDS011;45149;50.976;6.120;2022-09-01T08:35:41;2.88;;;1.92;;
58089;SDS011;45149;50.976;6.120;2022-09-01T08:38:10;5.97;;;2.08;;
58089;SDS011;45149;50.976;6.120;2022-09-01T08:40:36;3.53;;;2.10;;
58089;SDS011;45149;50.976;6.120;2022-09-01T08:45:38;4.13;;;1.90;;
58089;SDS011;45149;50.976;6.120;2022-09-01T08:48:30;5.55;;;2.10;;
58089;SDS011;45149;50.976;6.120;2022-09-01T08:50:58;3.50;;;2.00;;
58089;SDS011;45149;50.976;6.120;2022-09-01T08:53:35;3.65;;;2.03;;
58089;SDS011;45149;50.976;6.120;2022-09-01T08:56:09;2.90;;;2.10;;
58089;SDS011;45149;50.976;6.120;2022-09-01T08:58:37;2.90;;;1.90;;
58089;SDS011;45149;50.976;6.120;2022-09-01T09:01:06;4.00;;;2.08;;
58089;SDS011;45149;50.976;6.120;2022-09-01T09:03:50;2.78;;;1.80;;
58089;SDS011;45149;50.976;6.120;2022-09-01T09:06:46;3.47;;;2.30;;
58089;SDS011;45149;50.976;6.120;2022-09-01T09:09:33;4.13;;;2.33;;
58089;SDS011;45149;50.976;6.120;2022-09-01T09:17:40;2.88;;;2.00;;
58089;SDS011;45149;50.976;6.120;2022-09-01T09:20:12;4.75;;;2.20;;
58089;SDS011;45149;50.976;6.120;2022-09-01T09:22:38;3.05;;;1.88;;
58089;SDS011;45149;50.976;6.120;2022-09-01T09:25:12;4.35;;;2.00;;
58089;SDS011;45149;50.976;6.120;2022-09-01T09:27:40;3.47;;;1.80;;
58089;SDS011;45149;50.976;6.120;2022-09-01T09:30:13;5.00;;;1.95;;
58089;SDS011;45149;50.976;6.120;2022-09-01T09:35:31;3.03;;;2.10;;
58089;SDS011;45149;50.976;6.120;2022-09-01T09:43:31;3.38;;;1.80;;
58089;SDS011;45149;50.976;6.120;2022-09-01T09:46:20;2.65;;;1.80;;
58089;SDS011;45149;50.976;6.120;2022-09-01T09:49:08;3.75;;;1.80;;
58089;SDS011;45149;50.976;6.120;2022-09-01T09:51:37;4.28;;;1.80;;
58089;SDS011;45149;50.976;6.120;2022-09-01T09:56:39;5.80;;;2.28;;
58089;SDS011;45149;50.976;6.120;2022-09-01T09:59:22;3.05;;;1.67;;
58089;SDS011;45149;50.976;6.120;2022-09-01T10:01:56;2.42;;;1.30;;
58089;SDS011;45149;50.976;6.120;2022-09-01T10:04:30;2.78;;;1.23;;
58089;SDS011;45149;50.976;6.120;2022-09-01T10:06:59;1.45;;;1.10;;
58089;SDS011;45149;50.976;6.120;2022-09-01T10:11:51;5.75;;;1.60;;
58089;SDS011;45149;50.976;6.120;2022-09-01T10:14:21;2.47;;;1.58;;
58089;SDS011;45149;50.976;6.120;2022-09-01T10:16:50;3.88;;;1.52;;
58089;SDS011;45149;50.976;6.120;2022-09-01T10:19:22;3.17;;;1.30;;
58089;SDS011;45149;50.976;6.120;2022-09-01T10:21:49;2.95;;;1.58;;
58089;SDS011;45149;50.976;6.120;2022-09-01T10:24:48;3.25;;;1.40;;
58089;SDS011;45149;50.976;6.120;2022-09-01T10:27:12;2.58;;;1.42;;
58089;SDS011;45149;50.976;6.120;2022-09-01T10:32:33;3.35;;;1.70;;
58089;SDS011;45149;50.976;6.120;2022-09-01T10:35:05;4.50;;;1.30;;
58089;SDS011;45149;50.976;6.120;2022-09-01T10:37:34;1.83;;;1.30;;
58089;SDS011;45149;50.976;6.120;2022-09-01T10:42:38;3.50;;;1.50;;
58089;SDS011;45149;50.976;6.120;2022-09-01T10:45:06;4.93;;;1.85;;
58089;SDS011;45149;50.976;6.120;2022-09-01T10:47:41;2.22;;;1.20;;
58089;SDS011;45149;50.976;6.120;2022-09-01T10:53:00;1.88;;;1.10;;
58089;SDS011;45149;50.976;6.120;2022-09-01T10:55:34;2.55;;;1.23;;
58089;SDS011;45149;50.976;6.120;2022-09-01T11:00:49;2.60;;;1.30;;
58089;SDS011;45149;50.976;6.120;2022-09-01T11:09:01;3.20;;;1.10;;
58089;SDS011;45149;50.976;6.120;2022-09-01T11:11:38;2.15;;;1.40;;
58089;SDS011;45149;50.976;6.120;2022-09-01T11:14:16;3.92;;;1.42;;
58089;SDS011;45149;50.976;6.120;2022-09-01T11:16:43;2.72;;;1.20;;
58089;SDS011;45149;50.976;6.120;2022-09-01T11:19:43;2.67;;;1.33;;
58089;SDS011;45149;50.976;6.120;2022-09-01T11:22:24;1.47;;;1.27;;
58089;SDS011;45149;50.976;6.120;2022-09-01T11:30:14;2.45;;;1.25;;
58089;SDS011;45149;50.976;6.120;2022-09-01T11:32:41;2.47;;;1.00;;
58089;SDS011;45149;50.976;6.120;2022-09-01T11:35:15;2.58;;;1.17;;
58089;SDS011;45149;50.976;6.120;2022-09-01T11:37:47;2.90;;;1.42;;
58089;SDS011;45149;50.976;6.120;2022-09-01T11:40:19;1.60;;;1.10;;
58089;SDS011;45149;50.976;6.120;2022-09-01T11:42:50;2.55;;;1.15;;
58089;SDS011;45149;50.976;6.120;2022-09-01T11:45:19;3.92;;;1.20;;
58089;SDS011;45149;50.976;6.120;2022-09-01T11:47:51;2.95;;;1.50;;
58089;SDS011;45149;50.976;6.120;2022-09-01T11:52:56;2.60;;;1.27;;
58089;SDS011;45149;50.976;6.120;2022-09-01T12:00:51;3.15;;;1.20;;
58089;SDS011;45149;50.976;6.120;2022-09-01T12:03:20;2.22;;;1.25;;
58089;SDS011;45149;50.976;6.120;2022-09-01T12:05:47;2.28;;;1.20;;
58089;SDS011;45149;50.976;6.120;2022-09-01T12:08:23;2.88;;;1.30;;
58089;SDS011;45149;50.976;6.120;2022-09-01T12:10:59;1.20;;;1.10;;
58089;SDS011;45149;50.976;6.120;2022-09-01T12:13:54;3.83;;;1.42;;
58089;SDS011;45149;50.976;6.120;2022-09-01T12:16:39;1.80;;;1.08;;
58089;SDS011;45149;50.976;6.120;2022-09-01T12:19:06;2.58;;;1.00;;
58089;SDS011;45149;50.976;6.120;2022-09-01T12:26:48;2.35;;;1.25;;
58089;SDS011;45149;50.976;6.120;2022-09-01T12:29:16;2.35;;;1.20;;
58089;SDS011;45149;50.976;6.120;2022-09-01T12:31:43;5.47;;;1.15;;
58089;SDS011;45149;50.976;6.120;2022-09-01T12:34:27;3.70;;;1.30;;
58089;SDS011;45149;50.976;6.120;2022-09-01T12:37:09;5.57;;;1.50;;
58089;SDS011;45149;50.976;6.120;2022-09-01T12:39:47;2.40;;;1.23;;
58089;SDS011;45149;50.976;6.120;2022-09-01T12:50:02;2.15;;;1.33;;
58089;SDS011;45149;50.976;6.120;2022-09-01T12:53:00;1.77;;;1.40;;
58089;SDS011;45149;50.976;6.120;2022-09-01T12:55:28;4.90;;;1.52;;
58089;SDS011;45149;50.976;6.120;2022-09-01T12:58:02;1.92;;;1.38;;
58089;SDS011;45149;50.976;6.120;2022-09-01T13:00:30;4.10;;;1.60;;
58089;SDS011;45149;50.976;6.120;2022-09-01T13:05:29;3.72;;;1.25;;
58089;SDS011;45149;50.976;6.120;2022-09-01T13:08:00;1.67;;;1.25;;
58089;SDS011;45149;50.976;6.120;2022-09-01T13:10:34;4.32;;;1.50;;
58089;SDS011;45149;50.976;6.120;2022-09-01T13:13:02;2.88;;;1.80;;
58089;SDS011;45149;50.976;6.120;2022-09-01T13:15:28;2.65;;;1.80;;
58089;SDS011;45149;50.976;6.120;2022-09-01T13:17:55;2.65;;;1.50;;
58089;SDS011;45149;50.976;6.120;2022-09-01T13:20:21;2.40;;;1.77;;
58089;SDS011;45149;50.976;6.120;2022-09-01T13:22:46;4.90;;;3.65;;
58089;SDS011;45149;50.976;6.120;2022-09-01T13:25:13;2.15;;;1.58;;
58089;SDS011;45149;50.976;6.120;2022-09-01T13:27:42;5.53;;;3.27;;
58089;SDS011;45149;50.976;6.120;2022-09-01T13:30:13;2.88;;;1.63;;
58089;SDS011;45149;50.976;6.120;2022-09-01T13:32:40;4.18;;;2.10;;
58089;SDS011;45149;50.976;6.120;2022-09-01T13:35:07;4.47;;;2.50;;
58089;SDS011;45149;50.976;6.120;2022-09-01T13:37:33;4.45;;;1.60;;
58089;SDS011;45149;50.976;6.120;2022-09-01T13:39:59;6.95;;;2.33;;
58089;SDS011;45149;50.976;6.120;2022-09-01T13:42:25;3.38;;;2.28;;
58089;SDS011;45149;50.976;6.120;2022-09-01T13:44:50;2.85;;;2.40;;
58089;SDS011;45149;50.976;6.120;2022-09-01T13:47:16;3.33;;;2.35;;
58089;SDS011;45149;50.976;6.120;2022-09-01T13:49:41;3.95;;;1.75;;
58089;SDS011;45149;50.976;6.120;2022-09-01T13:52:06;3.88;;;2.10;;
58089;SDS011;45149;50.976;6.120;2022-09-01T13:54:32;3.00;;;1.75;;
58089;SDS011;45149;50.976;6.120;2022-09-01T13:56:57;2.60;;;2.10;;
58089;SDS011;45149;50.976;6.120;2022-09-01T13:59:23;3.47;;;1.90;;
58089;SDS011;45149;50.976;6.120;2022-09-01T14:01:48;5.35;;;2.13;;
58089;SDS011;45149;50.976;6.120;2022-09-01T14:04:14;2.85;;;2.13;;
58089;SDS011;45149;50.976;6.120;2022-09-01T14:06:39;8.68;;;5.35;;
58089;SDS011;45149;50.976;6.120;2022-09-01T14:09:08;3.22;;;1.90;;
58089;SDS011;45149;50.976;6.120;2022-09-01T14:11:35;9.98;;;5.90;;
58089;SDS011;45149;50.976;6.120;2022-09-01T14:14:00;3.50;;;2.20;;
58089;SDS011;45149;50.976;6.120;2022-09-01T14:16:26;6.15;;;2.80;;
58089;SDS011;45149;50.976;6.120;2022-09-01T14:18:51;4.15;;;2.30;;
58089;SDS011;45149;50.976;6.120;2022-09-01T14:21:19;2.15;;;1.80;;
58089;SDS011;45149;50.976;6.120;2022-09-01T14:23:45;3.10;;;1.98;;
58089;SDS011;45149;50.976;6.120;2022-09-01T14:26:11;3.47;;;2.20;;
58089;SDS011;45149;50.976;6.120;2022-09-01T14:28:39;2.40;;;2.20;;
58089;SDS011;45149;50.976;6.120;2022-09-01T14:31:14;2.50;;;2.10;;
58089;SDS011;45149;50.976;6.120;2022-09-01T14:33:42;5.55;;;2.20;;
58089;SDS011;45149;50.976;6.120;2022-09-01T14:36:15;3.45;;;2.00;;
58089;SDS011;45149;50.976;6.120;2022-09-01T14:38:45;3.80;;;1.98;;
58089;SDS011;45149;50.976;6.120;2022-09-01T14:41:13;2.10;;;1.83;;
58089;SDS011;45149;50.976;6.120;2022-09-01T14:43:39;2.58;;;1.90;;
58089;SDS011;45149;50.976;6.120;2022-09-01T14:46:07;3.67;;;1.80;;
58089;SDS011;45149;50.976;6.120;2022-09-01T14:48:34;3.00;;;2.17;;
58089;SDS011;45149;50.976;6.120;2022-09-01T14:51:01;2.75;;;1.80;;
58089;SDS011;45149;50.976;6.120;2022-09-01T14:53:27;5.88;;;2.30;;
58089;SDS011;45149;50.976;6.120;2022-09-01T14:55:54;4.30;;;2.17;;
58089;SDS011;45149;50.976;6.120;2022-09-01T14:58:20;3.47;;;2.28;;
58089;SDS011;45149;50.976;6.120;2022-09-01T15:00:46;4.20;;;1.90;;
58089;SDS011;45149;50.976;6.120;2022-09-01T15:03:12;5.18;;;2.10;;
58089;SDS011;45149;50.976;6.120;2022-09-01T15:05:37;2.92;;;2.08;;
58089;SDS011;45149;50.976;6.120;2022-09-01T15:08:03;2.40;;;2.00;;
58089;SDS011;45149;50.976;6.120;2022-09-01T15:10:29;3.63;;;2.20;;
58089;SDS011;45149;50.976;6.120;2022-09-01T15:12:56;5.60;;;2.08;;
58089;SDS011;45149;50.976;6.120;2022-09-01T15:15:24;5.00;;;2.10;;
58089;SDS011;45149;50.976;6.120;2022-09-01T15:17:50;4.00;;;2.47;;
58089;SDS011;45149;50.976;6.120;2022-09-01T15:20:16;2.50;;;2.00;;
58089;SDS011;45149;50.976;6.120;2022-09-01T15:23:00;2.40;;;1.90;;
58089;SDS011;45149;50.976;6.120;2022-09-01T15:25:26;5.85;;;2.30;;
58089;SDS011;45149;50.976;6.120;2022-09-01T15:27:51;3.00;;;2.10;;
58089;SDS011;45149;50.976;6.120;2022-09-01T15:30:16;5.40;;;2.20;;
58089;SDS011;45149;50.976;6.120;2022-09-01T15:32:44;2.20;;;2.00;;
58089;SDS011;45149;50.976;6.120;2022-09-01T15:35:11;3.58;;;2.05;;
58089;SDS011;45149;50.976;6.120;2022-09-01T15:37:37;4.65;;;1.90;;
58089;SDS011;45149;50.976;6.120;2022-09-01T15:40:03;2.92;;;2.22;;
58089;SDS011;45149;50.976;6.120;2022-09-01T15:42:29;2.40;;;2.20;;
58089;SDS011;45149;50.976;6.120;2022-09-01T15:44:55;4.13;;;2.47;;
58089;SDS011;45149;50.976;6.120;2022-09-01T15:47:20;4.00;;;2.30;;
58089;SDS011;45149;50.976;6.120;2022-09-01T15:49:45;5.13;;;2.20;;
58089;SDS011;45149;50.976;6.120;2022-09-01T15:52:11;4.65;;;2.30;;
58089;SDS011;45149;50.976;6.120;2022-09-01T15:54:36;3.78;;;2.47;;
58089;SDS011;45149;50.976;6.120;2022-09-01T15:57:02;5.40;;;2.30;;
58089;SDS011;45149;50.976;6.120;2022-09-01T15:59:29;4.78;;;2.50;;
58089;SDS011;45149;50.976;6.120;2022-09-01T16:01:54;5.35;;;2.50;;
58089;SDS011;45149;50.976;6.120;2022-09-01T16:04:19;3.78;;;2.38;;
58089;SDS011;45149;50.976;6.120;2022-09-01T16:06:45;2.53;;;2.20;;
58089;SDS011;45149;50.976;6.120;2022-09-01T16:09:11;3.20;;;2.38;;